Indianapolis, Indiana
Traffic Map
Current Weather Conditions
Indianapolis, Indiana
Clear
Clear
21°
Feels Like: 21°
Wind Chill: 21° Ceiling: Unl
Heat Index: 21° Visibility: 10mi
Dew Point: Wind: 3mph
Humidity: 41% Direction: 60° (ENE)
Pressure: 30.3in Gusts: 0mph
Raw Report DataKIND 231954Z 06003KT 10SM CLR 21/07 A3030 RMK AO2 SLP259 T02110072
Traffic Incident Summary
Active as of:
Severity:
Category:
InformationThere was an issue retrieving the traffic information for this location. Please try a different location or try again shortly.
Advertisements
Track Severe Weather on mobile